Time;durP1;ratioP1;P1;durP2;ratioP2;P2;SDS_P1;SDS_P2;PMS_P1;PMS_P2;Temp;Humidity;BMP_temperature;BMP_pressure;BME280_temperature;BME280_humidity;BME280_pressure;Samples;Min_cycle;Max_cycle;Signal;HPM_P1;HPM_P2
2020/12/06 00:01:23;;;;;;;13.07;6.47;;;2.60;99.90;;;;;;5057863;28;20284;-75
2020/12/06 00:03:49;;;;;;;11.40;6.13;;;2.80;99.90;;;;;;5067794;28;20650;-75
2020/12/06 00:06:20;;;;;;;11.10;6.03;;;2.90;99.90;;;;;;5070094;28;20204;-76
2020/12/06 00:08:50;;;;;;;9.03;5.90;;;3.00;99.90;;;;;;5083608;28;20237;-75
2020/12/06 00:11:18;;;;;;;7.90;5.30;;;3.10;99.90;;;;;;5071597;28;20584;-75
2020/12/06 00:13:44;;;;;;;9.40;6.00;;;3.10;99.90;;;;;;5086193;28;20219;-75
2020/12/06 00:16:15;;;;;;;6.30;5.43;;;3.10;99.90;;;;;;5081486;28;20646;-75
2020/12/06 00:18:46;;;;;;;7.70;6.00;;;3.20;99.90;;;;;;5055448;28;20249;-75
2020/12/06 00:21:13;;;;;;;10.00;6.47;;;3.10;99.90;;;;;;5064736;28;20214;-74
2020/12/06 00:23:40;;;;;;;8.23;5.87;;;3.20;99.90;;;;;;5082823;28;20653;-74
2020/12/06 00:26:07;;;;;;;11.53;6.50;;;3.20;99.90;;;;;;5080589;28;20259;-74
2020/12/06 00:28:34;;;;;;;10.37;6.70;;;3.10;99.90;;;;;;5083735;28;20210;-74
2020/12/06 00:31:01;;;;;;;7.97;6.10;;;3.00;99.90;;;;;;5068440;28;20214;-75
2020/12/06 00:33:27;;;;;;;9.90;6.00;;;2.90;99.90;;;;;;5079281;28;20640;-75
2020/12/06 00:35:54;;;;;;;8.03;5.43;;;2.80;99.90;;;;;;5085027;28;20258;-75
2020/12/06 00:38:21;;;;;;;9.70;5.97;;;2.60;99.90;;;;;;5084510;28;20263;-75
2020/12/06 00:40:48;;;;;;;7.80;6.07;;;2.50;99.90;;;;;;5080500;28;20633;-75
2020/12/06 00:43:14;;;;;;;8.17;5.77;;;2.40;99.90;;;;;;5066915;28;20249;-74
2020/12/06 00:45:40;;;;;;;10.47;7.43;;;2.40;99.90;;;;;;5083264;28;20342;-75
2020/12/06 00:48:07;;;;;;;9.43;6.90;;;2.40;99.90;;;;;;5077145;28;20194;-74
2020/12/06 00:50:33;;;;;;;10.47;6.43;;;2.40;99.90;;;;;;5072357;28;20197;-73
2020/12/06 00:53:00;;;;;;;12.93;6.63;;;2.50;99.90;;;;;;5053444;28;20201;-75
2020/12/06 00:55:28;;;;;;;7.63;5.90;;;2.50;99.90;;;;;;5062192;28;20195;-74
2020/12/06 00:57:54;;;;;;;8.80;6.03;;;2.50;99.90;;;;;;5052261;28;20584;-75
2020/12/06 01:00:21;;;;;;;7.97;6.30;;;2.40;99.90;;;;;;5052850;28;20293;-75
2020/12/06 01:02:47;;;;;;;10.70;7.17;;;2.50;99.90;;;;;;5067403;28;20240;-75
2020/12/06 01:05:14;;;;;;;9.43;6.77;;;2.60;99.90;;;;;;5087201;28;20214;-75
2020/12/06 01:07:41;;;;;;;8.67;6.07;;;2.70;99.90;;;;;;5084939;28;20260;-75
2020/12/06 01:10:10;;;;;;;9.17;6.73;;;2.60;99.90;;;;;;5080434;28;20333;-75
2020/12/06 01:12:38;;;;;;;10.47;6.47;;;2.50;99.90;;;;;;5082617;28;20563;-75
2020/12/06 01:15:06;;;;;;;9.77;6.37;;;2.60;99.90;;;;;;5084903;28;20640;-75
2020/12/06 01:17:32;;;;;;;7.43;5.93;;;2.60;99.90;;;;;;5079460;28;20299;-76
2020/12/06 01:19:59;;;;;;;12.13;7.50;;;2.50;99.90;;;;;;5084382;28;20218;-75
2020/12/06 01:22:26;;;;;;;9.33;6.70;;;2.70;99.90;;;;;;5051497;28;20213;-76
2020/12/06 01:24:52;;;;;;;11.53;7.20;;;2.70;99.90;;;;;;5081764;28;20271;-74
2020/12/06 01:27:19;;;;;;;12.30;7.00;;;2.80;99.90;;;;;;5084551;28;20282;-75
2020/12/06 01:29:45;;;;;;;11.80;6.90;;;2.80;99.90;;;;;;5102434;28;20254;-75
2020/12/06 01:32:11;;;;;;;11.87;6.23;;;2.80;99.90;;;;;;5069879;28;20272;-76
2020/12/06 01:34:37;;;;;;;11.40;6.63;;;2.60;99.90;;;;;;5092340;28;20256;-76
2020/12/06 01:37:04;;;;;;;11.97;7.23;;;2.50;99.90;;;;;;5083830;28;20226;-75
2020/12/06 01:39:30;;;;;;;12.87;7.67;;;2.60;99.90;;;;;;5077739;28;20218;-76
2020/12/06 01:41:57;;;;;;;12.77;7.33;;;2.60;99.90;;;;;;5082803;28;20653;-75
2020/12/06 01:44:28;;;;;;;13.20;7.77;;;2.50;99.90;;;;;;5081933;28;20302;-75
2020/12/06 01:46:56;;;;;;;10.60;7.40;;;2.60;99.90;;;;;;5085913;28;20255;-76
2020/12/06 01:49:35;;;;;;;11.70;7.27;;;2.50;99.90;;;;;;5082770;28;20268;-76
2020/12/06 01:52:04;;;;;;;10.73;7.70;;;2.40;99.90;;;;;;5078697;28;20201;-75
2020/12/06 01:54:32;;;;;;;12.33;6.67;;;2.40;99.90;;;;;;5075268;28;20209;-75
2020/12/06 01:56:58;;;;;;;12.73;7.57;;;2.40;99.90;;;;;;5085273;28;20199;-75
2020/12/06 01:59:25;;;;;;;14.63;7.77;;;2.40;99.90;;;;;;5090688;28;20200;-75
2020/12/06 02:02:01;;;;;;;11.63;7.63;;;2.50;99.90;;;;;;5085074;28;20261;-75
2020/12/06 02:04:29;;;;;;;10.90;7.57;;;2.70;99.90;;;;;;5081496;28;20206;-75
2020/12/06 02:06:57;;;;;;;13.67;7.80;;;2.80;99.90;;;;;;5082937;28;20212;-75
2020/12/06 02:09:24;;;;;;;11.77;7.60;;;2.70;99.90;;;;;;5065508;28;20293;-75
2020/12/06 02:11:51;;;;;;;11.20;7.60;;;2.50;99.90;;;;;;5094878;28;20219;-75
2020/12/06 02:14:18;;;;;;;11.40;8.40;;;2.40;99.90;;;;;;5057109;28;20357;-75
2020/12/06 02:16:45;;;;;;;12.33;8.20;;;2.40;99.90;;;;;;5059026;28;20264;-75
2020/12/06 02:19:12;;;;;;;12.50;7.50;;;2.50;99.90;;;;;;5087323;28;20218;-75
2020/12/06 02:21:40;;;;;;;10.70;7.80;;;2.60;99.90;;;;;;5068718;28;20774;-76
2020/12/06 02:24:11;;;;;;;11.80;7.80;;;2.70;99.90;;;;;;5083201;28;20229;-75
2020/12/06 02:26:39;;;;;;;12.50;8.37;;;2.70;99.90;;;;;;5084751;28;20596;-75
2020/12/06 02:29:06;;;;;;;10.40;7.17;;;2.80;99.90;;;;;;5080169;28;20560;-75
2020/12/06 02:31:32;;;;;;;11.07;7.60;;;2.90;99.90;;;;;;5084990;28;20306;-75
2020/12/06 02:33:58;;;;;;;11.97;7.30;;;2.90;99.90;;;;;;5053769;28;20297;-75
2020/12/06 02:36:25;;;;;;;13.10;8.17;;;2.90;99.90;;;;;;5061997;28;20607;-75
2020/12/06 02:38:51;;;;;;;13.37;7.53;;;2.80;99.90;;;;;;5078474;28;20206;-75
2020/12/06 02:41:18;;;;;;;11.80;8.27;;;2.80;99.90;;;;;;5079145;28;20514;-75
2020/12/06 02:43:45;;;;;;;13.27;9.17;;;2.80;99.90;;;;;;5086522;28;20201;-75
2020/12/06 02:46:11;;;;;;;10.77;7.77;;;3.00;99.90;;;;;;5083685;28;20206;-74
2020/12/06 02:48:38;;;;;;;14.20;7.77;;;3.00;99.90;;;;;;5081844;28;22043;-75
2020/12/06 02:51:04;;;;;;;13.47;8.00;;;3.00;99.90;;;;;;5089191;28;20258;-74
2020/12/06 02:53:32;;;;;;;12.27;8.00;;;3.10;99.90;;;;;;5086392;28;20649;-74
2020/12/06 02:55:58;;;;;;;12.93;7.40;;;3.10;99.90;;;;;;5076487;28;20210;-74
2020/12/06 02:58:25;;;;;;;13.10;7.67;;;3.00;99.90;;;;;;5073802;28;20359;-75
2020/12/06 03:00:51;;;;;;;17.07;9.10;;;3.10;99.90;;;;;;5070178;28;20201;-75
2020/12/06 03:03:17;;;;;;;12.87;7.80;;;3.00;99.90;;;;;;5070048;28;20252;-75
2020/12/06 03:05:43;;;;;;;10.17;7.33;;;3.00;99.90;;;;;;5087612;28;20240;-73
2020/12/06 03:08:10;;;;;;;14.77;7.77;;;3.10;99.90;;;;;;5085233;28;20230;-75
2020/12/06 03:10:36;;;;;;;11.77;8.13;;;3.10;99.90;;;;;;5067321;28;20192;-74
2020/12/06 03:13:02;;;;;;;15.00;8.13;;;3.20;99.90;;;;;;5071168;28;20798;-76
2020/12/06 03:15:29;;;;;;;12.00;7.80;;;3.10;99.90;;;;;;5063930;28;20600;-75
2020/12/06 03:17:55;;;;;;;12.27;7.90;;;3.10;99.90;;;;;;5056088;28;20353;-74
2020/12/06 03:20:22;;;;;;;10.90;7.70;;;3.10;99.90;;;;;;5055287;28;20209;-74
2020/12/06 03:22:48;;;;;;;12.83;7.67;;;3.10;99.90;;;;;;5079331;28;20269;-74
2020/12/06 03:25:14;;;;;;;11.67;7.83;;;3.10;99.90;;;;;;5064102;28;20240;-75
2020/12/06 03:27:40;;;;;;;10.67;6.97;;;3.10;99.90;;;;;;5063324;28;20552;-75
2020/12/06 03:30:07;;;;;;;12.57;8.10;;;3.10;99.90;;;;;;5054384;28;20213;-75
2020/12/06 03:32:39;;;;;;;12.00;7.27;;;3.10;99.90;;;;;;5071623;28;20199;-74
2020/12/06 03:35:05;;;;;;;9.93;7.03;;;3.20;99.90;;;;;;5070681;28;20226;-74
2020/12/06 03:37:32;;;;;;;12.90;8.10;;;3.20;99.90;;;;;;5085924;28;20305;-73
2020/12/06 03:39:58;;;;;;;11.80;7.30;;;3.20;99.90;;;;;;5062580;28;20650;-74
2020/12/06 03:42:24;;;;;;;9.37;7.37;;;3.20;99.90;;;;;;5052046;28;20230;-76
2020/12/06 03:44:50;;;;;;;13.87;8.60;;;3.20;99.90;;;;;;5081470;28;20229;-74
2020/12/06 03:47:17;;;;;;;12.20;8.07;;;3.20;99.90;;;;;;5050473;28;20302;-73
2020/12/06 03:49:44;;;;;;;11.17;7.47;;;3.20;99.90;;;;;;5067516;28;20275;-74
2020/12/06 03:52:11;;;;;;;12.07;7.47;;;3.20;99.90;;;;;;5071149;28;20206;-74
2020/12/06 03:54:37;;;;;;;12.80;7.80;;;3.20;99.90;;;;;;5081070;28;20305;-74
2020/12/06 03:57:03;;;;;;;12.43;8.03;;;3.20;99.90;;;;;;5082581;28;20202;-74
2020/12/06 03:59:30;;;;;;;10.43;7.37;;;3.20;99.90;;;;;;5069900;28;20197;-74
2020/12/06 04:01:57;;;;;;;8.70;7.13;;;3.10;99.90;;;;;;5063396;28;20222;-74
2020/12/06 04:04:23;;;;;;;11.47;7.40;;;3.20;99.90;;;;;;5071173;28;20600;-74
2020/12/06 04:06:49;;;;;;;11.50;7.60;;;3.20;99.90;;;;;;5055480;28;20201;-75
2020/12/06 04:09:16;;;;;;;14.03;7.60;;;3.20;99.90;;;;;;5054891;28;20209;-75
2020/12/06 04:11:42;;;;;;;12.77;8.57;;;3.30;99.90;;;;;;5085833;28;20237;-74
2020/12/06 04:14:08;;;;;;;12.87;8.07;;;3.30;99.90;;;;;;5063655;28;20620;-76
2020/12/06 04:16:35;;;;;;;11.80;8.17;;;3.20;99.90;;;;;;5064031;28;20362;-75
2020/12/06 04:19:01;;;;;;;12.27;8.03;;;3.20;99.90;;;;;;5077627;28;20210;-75
2020/12/06 04:21:27;;;;;;;11.70;7.80;;;3.20;99.90;;;;;;5053577;28;20978;-74
2020/12/06 04:23:53;;;;;;;10.87;7.03;;;3.20;99.90;;;;;;5086872;28;20201;-76
2020/12/06 04:26:20;;;;;;;13.80;8.17;;;3.20;99.90;;;;;;5067061;28;20251;-75
2020/12/06 04:28:46;;;;;;;13.33;8.03;;;3.30;99.90;;;;;;5087112;28;20229;-76
2020/12/06 04:31:12;;;;;;;13.17;8.77;;;3.20;99.90;;;;;;5079799;28;20744;-74
2020/12/06 04:33:39;;;;;;;10.07;7.20;;;3.20;99.90;;;;;;5066563;28;20265;-75
2020/12/06 04:36:05;;;;;;;16.83;8.07;;;3.20;99.90;;;;;;5084327;28;20202;-74
2020/12/06 04:38:31;;;;;;;10.50;7.63;;;3.20;99.90;;;;;;5085401;28;20285;-75
2020/12/06 04:40:58;;;;;;;10.77;7.40;;;3.20;99.90;;;;;;5079560;28;20198;-75
2020/12/06 04:43:27;;;;;;;13.37;7.83;;;3.20;99.90;;;;;;5045646;28;20201;-75
2020/12/06 04:45:53;;;;;;;15.97;8.67;;;3.10;99.90;;;;;;5089487;28;20231;-75
2020/12/06 04:48:44;;;;;;;12.17;7.67;;;3.10;99.90;;;;;;5078267;28;20221;-75
2020/12/06 04:51:13;;;;;;;12.80;8.77;;;3.10;99.90;;;;;;5085435;28;20209;-75
2020/12/06 04:53:46;;;;;;;11.63;8.13;;;3.20;99.90;;;;;;5080283;28;20277;-75
2020/12/06 04:56:18;;;;;;;10.80;7.83;;;3.10;99.90;;;;;;5078336;28;20363;-75
2020/12/06 04:58:48;;;;;;;11.83;7.97;;;3.10;99.90;;;;;;5083792;28;20666;-75
2020/12/06 05:01:15;;;;;;;13.03;8.50;;;3.10;99.90;;;;;;5077760;28;20202;-75
2020/12/06 05:03:45;;;;;;;10.00;7.20;;;3.10;99.90;;;;;;5066053;28;20710;-75
2020/12/06 05:06:18;;;;;;;10.43;6.90;;;3.20;99.90;;;;;;5082160;28;20214;-75
2020/12/06 05:08:45;;;;;;;10.37;7.37;;;3.20;99.90;;;;;;5075092;28;20202;-75
2020/12/06 05:11:12;;;;;;;11.50;7.13;;;3.20;99.90;;;;;;5070671;28;20661;-75
2020/12/06 05:13:38;;;;;;;10.33;7.07;;;3.20;99.90;;;;;;5066979;28;20624;-74
2020/12/06 05:16:09;;;;;;;11.87;7.63;;;3.20;99.90;;;;;;5079691;28;21133;-74
2020/12/06 05:18:35;;;;;;;12.03;6.80;;;3.20;99.90;;;;;;5081350;28;20592;-75
2020/12/06 05:21:02;;;;;;;11.53;7.30;;;3.30;99.90;;;;;;5081921;28;20202;-75
2020/12/06 05:23:29;;;;;;;12.73;7.20;;;3.30;99.90;;;;;;5074172;28;20645;-74
2020/12/06 05:25:55;;;;;;;12.70;7.33;;;3.30;99.90;;;;;;5045349;28;20579;-74
2020/12/06 05:28:21;;;;;;;11.40;7.80;;;3.20;99.90;;;;;;5055295;28;20258;-75
2020/12/06 05:30:48;;;;;;;10.97;7.13;;;3.20;99.90;;;;;;5054704;28;20667;-75
2020/12/06 05:33:17;;;;;;;12.60;8.17;;;3.30;99.90;;;;;;5081296;28;20212;-74
2020/12/06 05:35:43;;;;;;;8.57;6.57;;;3.30;99.90;;;;;;5063373;28;20240;-75
2020/12/06 05:38:10;;;;;;;12.37;7.33;;;3.30;99.90;;;;;;5068181;28;20233;-74
2020/12/06 05:40:46;;;;;;;9.47;7.00;;;3.40;99.90;;;;;;5069118;28;20284;-74
2020/12/06 05:43:13;;;;;;;14.83;7.83;;;3.30;99.90;;;;;;5095355;28;20252;-74
2020/12/06 05:45:39;;;;;;;13.63;7.73;;;3.30;99.90;;;;;;5064075;28;20206;-75
2020/12/06 05:48:07;;;;;;;10.80;7.17;;;3.30;99.90;;;;;;5065974;28;20334;-74
2020/12/06 05:50:34;;;;;;;12.23;7.03;;;3.30;99.90;;;;;;5084968;28;20201;-74
2020/12/06 05:53:01;;;;;;;13.47;8.07;;;3.20;99.90;;;;;;5066743;28;20269;-74
2020/12/06 05:55:32;;;;;;;11.80;7.80;;;3.30;99.90;;;;;;5075196;28;20210;-75
2020/12/06 05:58:02;;;;;;;13.10;7.57;;;3.30;99.90;;;;;;5077613;28;20219;-75
2020/12/06 06:00:29;;;;;;;12.70;8.47;;;3.30;99.90;;;;;;5059011;28;20571;-76
2020/12/06 06:02:58;;;;;;;11.17;7.40;;;3.20;99.90;;;;;;5066208;28;20271;-74
2020/12/06 06:05:26;;;;;;;12.00;8.07;;;3.00;99.90;;;;;;5065477;28;20221;-74
2020/12/06 06:07:59;;;;;;;9.07;6.63;;;2.90;99.90;;;;;;5084612;28;20207;-75
2020/12/06 06:10:34;;;;;;;11.27;6.57;;;2.90;99.90;;;;;;5085853;28;20202;-74
2020/12/06 06:13:02;;;;;;;13.73;7.07;;;2.80;99.90;;;;;;5083617;28;20263;-74
2020/12/06 06:15:30;;;;;;;9.53;6.87;;;2.80;99.90;;;;;;5088852;28;20657;-74
2020/12/06 06:17:58;;;;;;;9.47;6.60;;;2.80;99.90;;;;;;5080875;28;20210;-74
2020/12/06 06:20:30;;;;;;;10.87;7.27;;;2.80;99.90;;;;;;5088435;28;20226;-74
2020/12/06 06:22:59;;;;;;;9.73;6.63;;;2.80;99.90;;;;;;5068070;28;20347;-74
2020/12/06 06:25:27;;;;;;;13.20;7.57;;;2.90;99.90;;;;;;5084700;28;20236;-74
2020/12/06 06:27:55;;;;;;;8.93;6.03;;;3.00;99.90;;;;;;5060431;28;20195;-74
2020/12/06 06:30:22;;;;;;;10.17;6.63;;;3.00;99.90;;;;;;5089754;28;20232;-75
2020/12/06 06:32:48;;;;;;;9.87;7.13;;;2.90;99.90;;;;;;5068131;28;20213;-74
2020/12/06 06:35:16;;;;;;;12.77;8.67;;;2.80;99.90;;;;;;5057000;28;20624;-74
2020/12/06 06:37:44;;;;;;;10.13;7.23;;;2.90;99.90;;;;;;5057125;28;20202;-74
2020/12/06 06:40:11;;;;;;;8.77;6.67;;;2.90;99.90;;;;;;5086277;28;20292;-75
2020/12/06 06:42:37;;;;;;;11.47;7.43;;;2.80;99.90;;;;;;5073435;28;20312;-74
2020/12/06 06:45:09;;;;;;;12.47;7.87;;;2.80;99.90;;;;;;5053760;28;20258;-74
2020/12/06 06:47:37;;;;;;;10.23;6.97;;;2.80;99.90;;;;;;5070241;28;20248;-74
2020/12/06 06:50:06;;;;;;;14.20;8.67;;;2.70;99.90;;;;;;5086824;28;20213;-74
2020/12/06 06:52:34;;;;;;;14.67;8.77;;;2.80;99.90;;;;;;5085114;28;20254;-74
2020/12/06 06:55:00;;;;;;;11.27;7.43;;;2.80;99.90;;;;;;5086226;28;20551;-74
2020/12/06 06:57:29;;;;;;;10.10;7.63;;;2.90;99.90;;;;;;5083164;28;20718;-74
2020/12/06 06:59:58;;;;;;;11.97;7.60;;;2.90;99.90;;;;;;5078606;28;20917;-74
2020/12/06 07:02:30;;;;;;;14.37;7.77;;;3.00;99.90;;;;;;5083747;28;20565;-75
2020/12/06 07:04:57;;;;;;;10.50;7.67;;;3.00;99.90;;;;;;5086278;28;20198;-74
2020/12/06 07:07:43;;;;;;;11.70;8.37;;;3.00;99.90;;;;;;5068869;28;20229;-74
2020/12/06 07:10:13;;;;;;;13.27;7.47;;;3.00;99.90;;;;;;5075966;28;20210;-74
2020/12/06 07:12:46;;;;;;;11.17;7.97;;;3.00;99.90;;;;;;5083337;28;20646;-74
2020/12/06 07:15:15;;;;;;;12.00;8.00;;;2.90;99.90;;;;;;5087320;28;20633;-73
2020/12/06 07:17:42;;;;;;;14.90;8.83;;;3.10;99.90;;;;;;5088324;28;20229;-74
2020/12/06 07:20:10;;;;;;;12.27;7.77;;;3.00;99.90;;;;;;5073118;28;20302;-74
2020/12/06 07:22:37;;;;;;;11.70;8.33;;;3.10;99.90;;;;;;5080008;28;20230;-74
2020/12/06 07:25:05;;;;;;;12.47;8.27;;;3.20;99.90;;;;;;5063196;28;20206;-74
2020/12/06 07:27:32;;;;;;;12.27;8.33;;;3.20;99.90;;;;;;5071189;28;21951;-74
2020/12/06 07:29:59;;;;;;;10.63;8.50;;;3.10;99.90;;;;;;5088614;28;20270;-74
2020/12/06 07:32:26;;;;;;;11.00;7.73;;;3.10;99.90;;;;;;5085900;28;20230;-74
2020/12/06 07:34:53;;;;;;;15.50;9.33;;;3.00;99.90;;;;;;5073091;28;20198;-73
2020/12/06 07:37:21;;;;;;;13.57;8.60;;;3.00;99.90;;;;;;5056395;28;20563;-74
2020/12/06 07:39:48;;;;;;;12.10;8.17;;;3.10;99.90;;;;;;5085662;28;20221;-74
2020/12/06 07:42:27;;;;;;;13.83;8.47;;;3.10;99.90;;;;;;5065695;28;20649;-74
2020/12/06 07:44:55;;;;;;;13.23;8.03;;;3.10;99.90;;;;;;5085789;28;20630;-74
2020/12/06 07:47:23;;;;;;;12.40;7.43;;;3.20;99.90;;;;;;5087565;28;21080;-74
2020/12/06 07:49:57;;;;;;;12.40;8.97;;;3.20;99.90;;;;;;5086962;28;20256;-74
2020/12/06 07:52:26;;;;;;;12.63;7.97;;;3.10;99.90;;;;;;5076800;28;20205;-75
2020/12/06 07:55:05;;;;;;;14.27;8.80;;;3.10;99.90;;;;;;5085421;28;20674;-74
2020/12/06 07:57:40;;;;;;;13.37;8.37;;;3.10;99.90;;;;;;5084217;28;20228;-74
2020/12/06 08:00:11;;;;;;;11.77;8.23;;;3.20;99.90;;;;;;5083807;28;20225;-75
2020/12/06 08:02:41;;;;;;;13.43;9.10;;;3.20;99.90;;;;;;5074710;28;20684;-74
2020/12/06 08:05:12;;;;;;;13.73;8.47;;;3.20;99.90;;;;;;5081160;28;20508;-74
2020/12/06 08:07:43;;;;;;;11.83;8.00;;;3.20;99.90;;;;;;5084037;28;20232;-74
2020/12/06 08:10:13;;;;;;;14.07;9.00;;;3.20;99.90;;;;;;5085799;28;20221;-74
2020/12/06 08:12:42;;;;;;;12.67;9.03;;;3.20;99.90;;;;;;5070428;28;20303;-75
2020/12/06 08:15:10;;;;;;;14.03;8.40;;;3.30;99.90;;;;;;5079394;28;20655;-75
2020/12/06 08:17:50;;;;;;;12.77;8.63;;;3.20;99.90;;;;;;5051116;28;20602;-74
2020/12/06 08:20:18;;;;;;;12.83;9.03;;;3.30;99.90;;;;;;5083520;28;20251;-75
2020/12/06 08:22:59;;;;;;;12.80;8.43;;;3.40;99.90;;;;;;5081556;28;20246;-76
2020/12/06 08:25:34;;;;;;;11.60;8.03;;;3.40;99.90;;;;;;5083948;28;20206;-74
2020/12/06 08:28:03;;;;;;;11.23;8.70;;;3.30;99.90;;;;;;5083447;28;20298;-74
2020/12/06 08:30:31;;;;;;;14.03;7.93;;;3.40;99.90;;;;;;5084329;28;20223;-76
2020/12/06 08:33:02;;;;;;;13.53;8.27;;;3.40;99.90;;;;;;5067846;28;20279;-75
2020/12/06 08:35:43;;;;;;;11.50;7.83;;;3.40;99.90;;;;;;5062650;28;20252;-75
2020/12/06 08:38:25;;;;;;;11.43;8.37;;;3.30;99.90;;;;;;5080234;28;20251;-74
2020/12/06 08:41:11;;;;;;;14.20;8.37;;;3.20;99.90;;;;;;5070497;28;20198;-76
2020/12/06 08:43:45;;;;;;;12.03;7.90;;;3.30;99.90;;;;;;5085431;28;20261;-75
2020/12/06 08:46:13;;;;;;;13.70;8.83;;;3.30;99.90;;;;;;5082264;28;20199;-74
2020/12/06 08:48:40;;;;;;;16.40;9.10;;;3.40;99.90;;;;;;5089216;28;20212;-75
2020/12/06 08:51:26;;;;;;;15.47;7.67;;;3.30;99.90;;;;;;5084917;28;20252;-75
2020/12/06 08:53:53;;;;;;;11.20;8.07;;;3.50;99.90;;;;;;5073557;28;20264;-74
2020/12/06 08:56:34;;;;;;;13.43;7.97;;;3.50;99.90;;;;;;5077163;28;20262;-75
2020/12/06 08:59:13;;;;;;;14.00;8.63;;;3.70;99.90;;;;;;5081482;28;20293;-76
2020/12/06 09:01:51;;;;;;;13.17;8.57;;;3.60;99.90;;;;;;5084336;28;20299;-75
2020/12/06 09:04:18;;;;;;;11.23;8.67;;;3.50;99.90;;;;;;5083954;28;20203;-76
2020/12/06 09:06:45;;;;;;;12.87;8.10;;;3.50;99.90;;;;;;5081267;28;20191;-77
2020/12/06 09:09:12;;;;;;;11.57;8.17;;;3.40;99.90;;;;;;5065157;28;20643;-76
2020/12/06 09:11:39;;;;;;;14.27;8.47;;;3.40;99.90;;;;;;5077596;28;20264;-77
2020/12/06 09:14:06;;;;;;;11.03;7.83;;;3.40;99.90;;;;;;5062627;28;20199;-77
2020/12/06 09:16:32;;;;;;;14.70;9.37;;;3.30;99.90;;;;;;5079352;28;20233;-77
2020/12/06 09:18:59;;;;;;;19.13;9.13;;;3.40;99.90;;;;;;5067309;28;20256;-77
2020/12/06 09:21:25;;;;;;;16.10;8.80;;;3.40;99.90;;;;;;5080055;28;20210;-75
2020/12/06 09:23:51;;;;;;;13.53;8.17;;;3.60;99.90;;;;;;5040123;28;20226;-74
2020/12/06 09:26:18;;;;;;;12.80;9.20;;;3.50;99.90;;;;;;5067237;28;20599;-75
2020/12/06 09:28:44;;;;;;;13.47;8.87;;;3.40;99.90;;;;;;5078670;28;20268;-75
2020/12/06 09:31:10;;;;;;;11.10;8.10;;;3.40;99.90;;;;;;5063208;28;20616;-75
2020/12/06 09:33:37;;;;;;;14.77;9.33;;;3.40;99.90;;;;;;5070328;28;21039;-75
2020/12/06 09:36:03;;;;;;;15.40;8.80;;;3.50;99.90;;;;;;5084461;28;20195;-75
2020/12/06 09:38:30;;;;;;;13.17;9.47;;;3.40;99.90;;;;;;5083767;28;20290;-75
2020/12/06 09:40:56;;;;;;;15.20;9.50;;;3.50;99.90;;;;;;5067545;28;20197;-75
2020/12/06 09:43:24;;;;;;;14.63;9.30;;;3.60;99.90;;;;;;5086073;28;20236;-76
2020/12/06 09:45:50;;;;;;;12.33;8.73;;;3.60;99.90;;;;;;5077983;28;20231;-75
2020/12/06 09:48:17;;;;;;;20.23;10.10;;;3.50;99.90;;;;;;5065324;28;20192;-75
2020/12/06 09:50:43;;;;;;;16.17;9.77;;;3.40;99.90;;;;;;5057234;28;20950;-75
2020/12/06 09:53:10;;;;;;;15.40;10.17;;;3.70;99.90;;;;;;5071664;28;20645;-75
2020/12/06 09:55:36;;;;;;;15.87;10.17;;;3.70;99.90;;;;;;5067049;28;20272;-75
2020/12/06 09:58:03;;;;;;;13.73;9.33;;;3.70;99.90;;;;;;5077213;28;20211;-76
2020/12/06 10:00:30;;;;;;;14.47;9.27;;;3.70;99.90;;;;;;5082659;28;20211;-76
2020/12/06 10:02:56;;;;;;;16.97;9.10;;;3.80;99.90;;;;;;5083709;28;20699;-75
2020/12/06 10:05:22;;;;;;;15.33;9.37;;;3.90;99.90;;;;;;5071909;28;20279;-76
2020/12/06 10:07:49;;;;;;;14.70;9.30;;;3.90;99.90;;;;;;5084289;28;20206;-75
2020/12/06 10:10:15;;;;;;;14.43;9.27;;;4.00;99.90;;;;;;5072549;28;20190;-76
2020/12/06 10:12:42;;;;;;;16.10;9.60;;;4.10;99.90;;;;;;5084673;28;20257;-75
2020/12/06 10:15:09;;;;;;;15.67;9.40;;;3.80;99.90;;;;;;5066400;28;20190;-77
2020/12/06 10:17:38;;;;;;;14.10;10.47;;;3.80;99.90;;;;;;5080056;28;20298;-76
2020/12/06 10:20:08;;;;;;;14.87;9.60;;;3.90;99.90;;;;;;5092116;28;20612;-75
2020/12/06 10:22:35;;;;;;;15.37;9.97;;;4.00;99.90;;;;;;5072100;28;20298;-75
2020/12/06 10:25:06;;;;;;;18.07;11.17;;;4.10;99.90;;;;;;5072015;28;20196;-75
2020/12/06 10:27:32;;;;;;;14.17;9.03;;;4.10;99.90;;;;;;5082993;28;20515;-75
2020/12/06 10:29:59;;;;;;;19.03;10.50;;;4.00;99.90;;;;;;5056303;28;20201;-75
2020/12/06 10:32:25;;;;;;;16.27;9.90;;;4.10;99.90;;;;;;5082064;28;20225;-76
2020/12/06 10:34:55;;;;;;;13.33;9.37;;;4.10;99.90;;;;;;5050006;28;20739;-76
2020/12/06 10:37:21;;;;;;;15.40;10.27;;;4.00;99.90;;;;;;5073547;28;20196;-75
2020/12/06 10:39:48;;;;;;;16.30;10.23;;;4.10;99.90;;;;;;5084919;28;21845;-76
2020/12/06 10:42:14;;;;;;;14.17;9.97;;;4.10;99.90;;;;;;5085435;28;20211;-75
2020/12/06 10:44:41;;;;;;;15.20;10.77;;;4.00;99.90;;;;;;5071139;28;20230;-75
2020/12/06 10:47:08;;;;;;;15.70;10.47;;;4.10;99.90;;;;;;5085673;28;20610;-75
2020/12/06 10:49:41;;;;;;;18.43;10.57;;;4.10;99.90;;;;;;5071871;28;20221;-75
2020/12/06 10:52:11;;;;;;;16.53;10.17;;;4.20;99.90;;;;;;5071809;28;20298;-75
2020/12/06 10:54:37;;;;;;;17.30;10.27;;;4.40;99.90;;;;;;5088459;28;20249;-75
2020/12/06 10:57:05;;;;;;;16.83;10.87;;;4.40;99.90;;;;;;5071061;28;20276;-76
2020/12/06 10:59:33;;;;;;;18.00;10.53;;;4.40;99.90;;;;;;5089467;28;20211;-75
2020/12/06 11:02:00;;;;;;;18.20;10.80;;;4.40;99.90;;;;;;5069310;28;20297;-75
2020/12/06 11:04:26;;;;;;;19.20;11.37;;;4.50;99.90;;;;;;5069855;28;20191;-76
2020/12/06 11:06:56;;;;;;;17.47;10.63;;;4.40;99.90;;;;;;5083148;28;20207;-76
2020/12/06 11:09:22;;;;;;;15.30;10.50;;;4.30;99.90;;;;;;5080242;28;20256;-75
2020/12/06 11:11:50;;;;;;;20.17;11.60;;;4.50;99.90;;;;;;5044605;28;22275;-75
2020/12/06 11:14:17;;;;;;;19.43;10.43;;;4.50;99.90;;;;;;5088719;28;20601;-76
2020/12/06 11:16:44;;;;;;;19.67;11.43;;;4.50;99.90;;;;;;5075669;28;20247;-76
2020/12/06 11:19:11;;;;;;;19.60;11.57;;;4.50;99.90;;;;;;5085398;28;20514;-76
2020/12/06 11:21:37;;;;;;;17.10;11.23;;;4.60;99.90;;;;;;5083979;28;20676;-76
2020/12/06 11:24:04;;;;;;;16.77;11.43;;;4.70;99.90;;;;;;5053135;28;20199;-76
2020/12/06 11:26:31;;;;;;;17.73;11.30;;;4.80;99.90;;;;;;5066300;28;20550;-76
2020/12/06 11:28:57;;;;;;;16.20;10.93;;;4.80;99.90;;;;;;5068767;28;20195;-76
2020/12/06 11:31:24;;;;;;;15.87;10.27;;;4.80;99.90;;;;;;5082442;28;20206;-76
2020/12/06 11:33:50;;;;;;;17.67;10.53;;;4.70;99.90;;;;;;5055526;28;20280;-76
2020/12/06 11:36:16;;;;;;;18.20;11.20;;;4.70;99.90;;;;;;5053929;28;20205;-76
2020/12/06 11:38:45;;;;;;;16.93;11.20;;;4.80;99.90;;;;;;5086891;28;20199;-76
2020/12/06 11:41:12;;;;;;;15.33;10.63;;;4.90;99.90;;;;;;5086319;28;20215;-76
2020/12/06 11:43:38;;;;;;;16.90;12.10;;;4.90;99.90;;;;;;5065738;28;20267;-76
2020/12/06 11:46:05;;;;;;;14.00;10.40;;;4.90;99.90;;;;;;5072791;28;20270;-77
2020/12/06 11:48:31;;;;;;;17.27;11.37;;;4.90;99.90;;;;;;5075793;28;20205;-75
2020/12/06 11:50:57;;;;;;;18.57;11.80;;;4.90;99.90;;;;;;5027020;28;20202;-76
2020/12/06 11:53:24;;;;;;;18.73;11.47;;;4.90;99.90;;;;;;5082932;28;20271;-76
2020/12/06 11:55:50;;;;;;;18.33;10.83;;;4.80;99.90;;;;;;5077066;28;21212;-76
2020/12/06 11:58:16;;;;;;;16.20;11.07;;;4.70;99.90;;;;;;5069098;28;20241;-76
2020/12/06 12:00:43;;;;;;;19.67;11.03;;;4.70;99.90;;;;;;5068182;28;20284;-76
2020/12/06 12:03:09;;;;;;;16.00;10.93;;;5.00;99.90;;;;;;5066754;28;20306;-76
2020/12/06 12:05:36;;;;;;;19.47;11.17;;;5.00;99.90;;;;;;5081139;28;20271;-76
2020/12/06 12:08:02;;;;;;;20.47;11.80;;;5.20;99.90;;;;;;5068440;28;20210;-76
2020/12/06 12:10:28;;;;;;;19.70;11.87;;;5.00;99.90;;;;;;5052490;28;20826;-77
2020/12/06 12:12:59;;;;;;;21.07;11.80;;;5.10;99.90;;;;;;5064388;28;20212;-77
2020/12/06 12:15:26;;;;;;;22.40;11.57;;;5.30;99.90;;;;;;5052914;28;20202;-77
2020/12/06 12:17:52;;;;;;;17.73;12.27;;;5.20;99.90;;;;;;5048131;28;20626;-78
2020/12/06 12:20:19;;;;;;;19.47;10.90;;;5.40;99.90;;;;;;5081707;28;20239;-77
2020/12/06 12:22:45;;;;;;;16.57;10.90;;;5.40;99.90;;;;;;5079783;28;20683;-77
2020/12/06 12:25:12;;;;;;;16.10;10.87;;;5.30;99.90;;;;;;5052579;28;20370;-77
2020/12/06 12:27:38;;;;;;;16.77;11.03;;;5.40;99.90;;;;;;5046639;28;20213;-76
2020/12/06 12:30:05;;;;;;;15.70;10.93;;;5.40;99.90;;;;;;5044471;28;20205;-76
2020/12/06 12:32:32;;;;;;;20.97;12.13;;;5.60;99.90;;;;;;5047501;28;21015;-77
2020/12/06 12:34:58;;;;;;;16.57;10.60;;;5.50;99.90;;;;;;5065846;28;20295;-77
2020/12/06 12:37:24;;;;;;;20.27;12.03;;;5.50;99.90;;;;;;5081394;28;20277;-77
2020/12/06 12:39:54;;;;;;;20.20;12.33;;;5.50;99.90;;;;;;5047012;28;20206;-76
2020/12/06 12:42:20;;;;;;;16.63;10.87;;;5.60;99.90;;;;;;5066232;28;20204;-77
2020/12/06 12:44:47;;;;;;;23.10;13.37;;;5.50;99.90;;;;;;5072809;28;20215;-77
2020/12/06 12:47:13;;;;;;;21.93;12.37;;;5.50;99.90;;;;;;5052825;28;20291;-77
2020/12/06 12:49:41;;;;;;;19.90;12.47;;;5.60;99.90;;;;;;5069421;28;20261;-77